Time;durP1;ratioP1;P1;durP2;ratioP2;P2;SDS_P1;SDS_P2;PMS_P1;PMS_P2;Temp;Humidity;BMP_temperature;BMP_pressure;BME280_temperature;BME280_humidity;BME280_pressure;Samples;Min_cycle;Max_cycle;Signal;HPM_P1;HPM_P2
2022/01/13 00:01:43;;;;;;;109.13;44.20;;;;;;;;;;5065977;28;20097;-77
2022/01/13 00:04:10;;;;;;;97.15;42.45;;;;;;;;;;5046714;28;20437;-79
2022/01/13 00:06:37;;;;;;;106.43;44.50;;;;;;;;;;5047107;28;20071;-79
2022/01/13 00:09:03;;;;;;;105.47;44.10;;;;;;;;;;5048374;28;20040;-80
2022/01/13 00:11:29;;;;;;;105.38;44.08;;;;;;;;;;5046576;28;20107;-77
2022/01/13 00:14:24;;;;;;;109.55;46.53;;;;;;;;;;5025625;28;20049;-80
2022/01/13 00:17:24;;;;;;;110.43;44.92;;;;;;;;;;5033378;28;20071;-79
2022/01/13 00:24:58;;;;;;;100.55;44.45;;;;;;;;;;5049062;28;20048;-80
2022/01/13 00:27:27;;;;;;;121.93;48.08;;;;;;;;;;5027489;28;20043;-78
2022/01/13 00:29:56;;;;;;;101.15;44.88;;;;;;;;;;5025557;28;20037;-78
2022/01/13 00:32:24;;;;;;;103.57;46.08;;;;;;;;;;5045808;28;20091;-78
2022/01/13 00:34:50;;;;;;;107.70;46.03;;;;;;;;;;5028781;28;20083;-78
2022/01/13 00:37:16;;;;;;;107.80;45.70;;;;;;;;;;5027819;28;20033;-80
2022/01/13 00:39:42;;;;;;;103.05;43.63;;;;;;;;;;5043920;28;20037;-77
2022/01/13 00:42:08;;;;;;;107.68;47.15;;;;;;;;;;5066340;28;20040;-78
2022/01/13 00:44:37;;;;;;;108.97;46.80;;;;;;;;;;5036458;28;20037;-77
2022/01/13 00:47:05;;;;;;;109.95;48.97;;;;;;;;;;5033498;28;20067;-80
2022/01/13 00:49:31;;;;;;;101.55;47.35;;;;;;;;;;5043674;28;20037;-77
2022/01/13 00:51:57;;;;;;;114.32;49.20;;;;;;;;;;5040858;28;20189;-79
2022/01/13 00:54:23;;;;;;;107.88;48.05;;;;;;;;;;5045326;28;20056;-77
2022/01/13 00:56:49;;;;;;;112.50;46.75;;;;;;;;;;5060680;28;20044;-79
2022/01/13 00:59:15;;;;;;;111.30;49.88;;;;;;;;;;5046779;28;20270;-80
2022/01/13 01:01:42;;;;;;;116.13;48.78;;;;;;;;;;5064170;28;20103;-79
2022/01/13 01:04:08;;;;;;;115.65;49.65;;;;;;;;;;5062794;28;20530;-77
2022/01/13 01:06:35;;;;;;;111.03;47.85;;;;;;;;;;5045257;28;20379;-79
2022/01/13 01:09:01;;;;;;;110.20;48.00;;;;;;;;;;5024910;28;20037;-78
2022/01/13 01:11:27;;;;;;;103.43;47.90;;;;;;;;;;5043445;28;20460;-78
2022/01/13 01:13:56;;;;;;;114.20;49.63;;;;;;;;;;5024796;28;20036;-77
2022/01/13 01:16:22;;;;;;;105.45;48.63;;;;;;;;;;5028742;28;20056;-80
2022/01/13 01:18:55;;;;;;;112.65;50.22;;;;;;;;;;5043801;28;20041;-79
2022/01/13 01:29:28;;;;;;;115.07;50.38;;;;;;;;;;5061865;28;20036;-76
2022/01/13 01:31:51;;;;;;;116.78;50.05;;;;;;;;;;5063896;28;20067;-76
2022/01/13 01:34:41;;;;;;;119.18;49.28;;;;;;;;;;5031786;28;20429;-79
2022/01/13 01:37:14;;;;;;;113.97;50.95;;;;;;;;;;5046522;28;20037;-76
2022/01/13 01:39:40;;;;;;;125.35;53.85;;;;;;;;;;5043426;28;20111;-77
2022/01/13 01:42:06;;;;;;;122.68;52.40;;;;;;;;;;5042372;28;20045;-78
2022/01/13 01:44:36;;;;;;;118.78;51.65;;;;;;;;;;5058426;28;20049;-78
2022/01/13 01:47:03;;;;;;;116.30;54.03;;;;;;;;;;5059291;28;20445;-77
2022/01/13 01:49:31;;;;;;;125.85;52.38;;;;;;;;;;5039742;28;20459;-77
2022/01/13 01:51:59;;;;;;;120.53;53.05;;;;;;;;;;5040936;28;20041;-79
2022/01/13 01:54:25;;;;;;;118.30;51.33;;;;;;;;;;5043248;28;20041;-77
2022/01/13 01:56:51;;;;;;;127.40;53.58;;;;;;;;;;5057551;28;20044;-78
2022/01/13 01:59:19;;;;;;;125.78;52.70;;;;;;;;;;5040156;28;20107;-79
2022/01/13 02:01:46;;;;;;;124.10;52.28;;;;;;;;;;5041933;28;20037;-80
2022/01/13 02:04:12;;;;;;;122.35;52.95;;;;;;;;;;5024287;28;20419;-79
2022/01/13 02:06:38;;;;;;;121.15;52.40;;;;;;;;;;5025173;28;20465;-76
2022/01/13 02:09:04;;;;;;;124.15;52.50;;;;;;;;;;5025694;28;20033;-76
2022/01/13 02:11:30;;;;;;;121.20;51.83;;;;;;;;;;5041342;28;20037;-77
2022/01/13 02:14:09;;;;;;;127.70;53.40;;;;;;;;;;5041774;28;20124;-80
2022/01/13 02:16:43;;;;;;;114.82;51.92;;;;;;;;;;5056984;28;20025;-79
2022/01/13 02:19:09;;;;;;;119.13;53.53;;;;;;;;;;5062140;28;20368;-77
2022/01/13 02:21:35;;;;;;;116.18;54.78;;;;;;;;;;5048796;28;20080;-76
2022/01/13 02:24:01;;;;;;;134.40;55.67;;;;;;;;;;5023792;28;20052;-79
2022/01/13 02:26:28;;;;;;;119.35;53.47;;;;;;;;;;5042164;28;20041;-78
2022/01/13 02:28:54;;;;;;;118.38;50.72;;;;;;;;;;5043792;28;20059;-80
2022/01/13 02:31:21;;;;;;;117.53;51.35;;;;;;;;;;5046404;28;20142;-80
2022/01/13 02:33:47;;;;;;;128.82;53.83;;;;;;;;;;5043542;28;20041;-77
2022/01/13 02:36:15;;;;;;;109.90;50.97;;;;;;;;;;5040297;28;20037;-78
2022/01/13 02:38:41;;;;;;;131.80;54.38;;;;;;;;;;5057202;28;20072;-77
2022/01/13 02:41:07;;;;;;;124.07;51.17;;;;;;;;;;5059954;28;20044;-80
2022/01/13 02:43:34;;;;;;;119.72;52.05;;;;;;;;;;5043179;28;20036;-79
2022/01/13 02:46:07;;;;;;;117.60;52.90;;;;;;;;;;5027241;28;20044;-79
2022/01/13 02:48:35;;;;;;;127.57;52.53;;;;;;;;;;5059532;28;20045;-77
2022/01/13 02:51:01;;;;;;;112.32;49.38;;;;;;;;;;5023276;28;20077;-76
2022/01/13 02:53:27;;;;;;;136.00;56.20;;;;;;;;;;5023945;28;20365;-78
2022/01/13 02:56:03;;;;;;;134.45;58.25;;;;;;;;;;5058900;28;20067;-79
2022/01/13 02:58:29;;;;;;;117.47;53.85;;;;;;;;;;5025085;28;20045;-78
2022/01/13 03:00:55;;;;;;;125.03;54.97;;;;;;;;;;5027770;28;20041;-78
2022/01/13 03:03:21;;;;;;;130.30;54.75;;;;;;;;;;5037020;28;20037;-78
2022/01/13 03:05:47;;;;;;;133.40;55.88;;;;;;;;;;5029259;28;20046;-78
2022/01/13 03:08:13;;;;;;;127.07;54.25;;;;;;;;;;5059509;28;20033;-77
2022/01/13 03:10:39;;;;;;;134.20;56.20;;;;;;;;;;5058214;28;20040;-78
2022/01/13 03:13:06;;;;;;;124.05;55.22;;;;;;;;;;5041252;28;20045;-81
2022/01/13 03:15:32;;;;;;;114.95;53.13;;;;;;;;;;5059682;28;20055;-80
2022/01/13 03:17:58;;;;;;;116.18;52.35;;;;;;;;;;5043080;28;20064;-79
2022/01/13 03:20:24;;;;;;;118.35;53.30;;;;;;;;;;5055740;28;20056;-77
2022/01/13 03:22:50;;;;;;;131.27;54.50;;;;;;;;;;5023640;28;20041;-81
2022/01/13 03:25:21;;;;;;;128.02;57.47;;;;;;;;;;5022316;28;20464;-78
2022/01/13 03:27:53;;;;;;;125.93;53.50;;;;;;;;;;5040548;28;20057;-80
2022/01/13 03:30:18;;;;;;;126.97;55.10;;;;;;;;;;5042938;28;20068;-80
2022/01/13 03:32:44;;;;;;;137.30;57.60;;;;;;;;;;5042406;28;20040;-77
2022/01/13 03:35:10;;;;;;;130.30;56.42;;;;;;;;;;5044840;28;20041;-80
2022/01/13 03:37:36;;;;;;;139.75;59.08;;;;;;;;;;5025659;28;20112;-79
2022/01/13 03:40:03;;;;;;;134.80;56.40;;;;;;;;;;5026871;28;20075;-79
2022/01/13 03:42:29;;;;;;;127.13;55.28;;;;;;;;;;5021135;28;20348;-78
2022/01/13 03:44:55;;;;;;;139.52;58.58;;;;;;;;;;5055881;28;20101;-77
2022/01/13 03:47:21;;;;;;;123.78;58.17;;;;;;;;;;5041995;28;20064;-76
2022/01/13 03:49:47;;;;;;;134.77;55.90;;;;;;;;;;5053337;28;20050;-77
2022/01/13 03:52:13;;;;;;;131.88;57.97;;;;;;;;;;5040167;28;20040;-76
2022/01/13 03:54:40;;;;;;;133.02;58.63;;;;;;;;;;5053977;28;20037;-80
2022/01/13 03:57:06;;;;;;;131.93;58.25;;;;;;;;;;5061258;28;20469;-78
2022/01/13 03:59:57;;;;;;;132.80;58.28;;;;;;;;;;5060386;28;20041;-77
2022/01/13 04:02:23;;;;;;;137.55;55.15;;;;;;;;;;5014319;28;20059;-78
2022/01/13 04:04:49;;;;;;;130.40;55.40;;;;;;;;;;5042186;28;20036;-80
2022/01/13 04:07:18;;;;;;;135.10;54.97;;;;;;;;;;5043204;28;20460;-79
2022/01/13 04:09:44;;;;;;;127.30;55.47;;;;;;;;;;5044462;28;20033;-80
2022/01/13 04:12:12;;;;;;;139.52;57.83;;;;;;;;;;5060650;28;20102;-79
2022/01/13 04:14:47;;;;;;;127.60;54.58;;;;;;;;;;5030177;28;20389;-79
2022/01/13 04:17:14;;;;;;;133.50;55.92;;;;;;;;;;5029788;28;20452;-77
2022/01/13 04:19:40;;;;;;;125.68;54.20;;;;;;;;;;5043881;28;20056;-80
2022/01/13 04:22:06;;;;;;;123.85;55.20;;;;;;;;;;5027342;28;20371;-77
2022/01/13 04:24:32;;;;;;;122.82;54.70;;;;;;;;;;5024606;28;20078;-76
2022/01/13 04:26:58;;;;;;;130.95;55.60;;;;;;;;;;5027863;28;20098;-80
2022/01/13 04:29:35;;;;;;;132.15;55.72;;;;;;;;;;5029162;28;20342;-80
2022/01/13 04:32:01;;;;;;;132.07;56.55;;;;;;;;;;5031036;28;20448;-81
2022/01/13 04:34:27;;;;;;;137.38;54.65;;;;;;;;;;5051367;28;20041;-78
2022/01/13 04:37:00;;;;;;;136.85;56.28;;;;;;;;;;5046919;28;20087;-79
2022/01/13 04:39:33;;;;;;;130.80;56.42;;;;;;;;;;5063758;28;20045;-80
2022/01/13 04:41:59;;;;;;;130.50;55.30;;;;;;;;;;5027915;28;20460;-78
2022/01/13 04:44:25;;;;;;;135.27;55.88;;;;;;;;;;5040416;28;20045;-77
2022/01/13 04:46:52;;;;;;;136.15;55.83;;;;;;;;;;5027116;28;20037;-80
2022/01/13 04:49:19;;;;;;;136.70;56.90;;;;;;;;;;5043359;28;20055;-77
2022/01/13 04:51:45;;;;;;;134.65;54.20;;;;;;;;;;5024552;28;20449;-77
2022/01/13 04:54:11;;;;;;;127.47;54.65;;;;;;;;;;5040789;28;20072;-77
2022/01/13 04:57:02;;;;;;;120.93;52.53;;;;;;;;;;5057973;28;20040;-77
2022/01/13 04:59:26;;;;;;;125.38;53.78;;;;;;;;;;5043366;28;20041;-77
2022/01/13 05:01:51;;;;;;;120.40;53.85;;;;;;;;;;5024668;28;20396;-78
2022/01/13 05:04:17;;;;;;;128.27;51.75;;;;;;;;;;5061779;28;20045;-77
2022/01/13 05:06:44;;;;;;;131.52;53.25;;;;;;;;;;5043609;28;20095;-80
2022/01/13 05:09:10;;;;;;;117.68;51.25;;;;;;;;;;5025184;28;20437;-77
2022/01/13 05:11:36;;;;;;;127.70;54.22;;;;;;;;;;5023195;28;20056;-77
2022/01/13 05:14:02;;;;;;;125.90;52.65;;;;;;;;;;5045325;28;20124;-79
2022/01/13 05:16:53;;;;;;;122.35;53.53;;;;;;;;;;5041610;28;20045;-78
2022/01/13 05:19:18;;;;;;;119.95;52.05;;;;;;;;;;5059972;28;20052;-76
2022/01/13 05:22:06;;;;;;;115.55;49.88;;;;;;;;;;5030162;28;20373;-75
2022/01/13 05:24:30;;;;;;;122.45;51.65;;;;;;;;;;5043255;28;20055;-75
2022/01/13 05:26:56;;;;;;;112.97;49.42;;;;;;;;;;5057669;28;20041;-78
2022/01/13 05:29:22;;;;;;;111.40;51.38;;;;;;;;;;5024931;28;20033;-82
2022/01/13 05:31:48;;;;;;;116.18;49.45;;;;;;;;;;5026355;28;20048;-84
2022/01/13 05:34:15;;;;;;;115.40;50.15;;;;;;;;;;5041474;28;20381;-81
2022/01/13 05:36:41;;;;;;;112.70;50.08;;;;;;;;;;5041902;28;20085;-82
2022/01/13 05:39:07;;;;;;;124.00;51.58;;;;;;;;;;5037034;28;20124;-82
2022/01/13 05:41:33;;;;;;;108.93;49.80;;;;;;;;;;5036607;28;20036;-80
2022/01/13 05:43:59;;;;;;;108.70;49.55;;;;;;;;;;5052914;28;20037;-80
2022/01/13 05:46:25;;;;;;;121.90;51.40;;;;;;;;;;5036549;28;20033;-82
2022/01/13 05:48:54;;;;;;;112.25;49.67;;;;;;;;;;5030345;28;20033;-83
2022/01/13 05:51:20;;;;;;;109.90;49.38;;;;;;;;;;5046352;28;20052;-83
2022/01/13 05:53:48;;;;;;;118.47;48.70;;;;;;;;;;5031823;28;20128;-82
2022/01/13 05:56:14;;;;;;;121.00;51.22;;;;;;;;;;5048164;28;20037;-84
2022/01/13 05:58:40;;;;;;;107.90;49.00;;;;;;;;;;5047926;28;20481;-85
2022/01/13 06:01:06;;;;;;;109.78;49.13;;;;;;;;;;5034195;28;20060;-82
2022/01/13 06:03:32;;;;;;;105.15;47.85;;;;;;;;;;5050535;28;20044;-84
2022/01/13 06:05:58;;;;;;;113.68;50.17;;;;;;;;;;5039738;28;20041;-82
2022/01/13 06:08:24;;;;;;;121.50;51.38;;;;;;;;;;5034443;28;20044;-86
2022/01/13 06:10:50;;;;;;;113.07;50.42;;;;;;;;;;5035572;28;20174;-83
2022/01/13 06:13:16;;;;;;;122.07;51.83;;;;;;;;;;5030842;28;20041;-82
2022/01/13 06:15:42;;;;;;;121.50;51.03;;;;;;;;;;5035035;28;20061;-81
2022/01/13 06:18:12;;;;;;;118.30;49.42;;;;;;;;;;5043474;28;20041;-84
2022/01/13 06:20:39;;;;;;;113.28;50.95;;;;;;;;;;5043774;28;20372;-83
2022/01/13 06:23:05;;;;;;;115.28;50.42;;;;;;;;;;5064415;28;20037;-82
2022/01/13 06:25:31;;;;;;;114.70;50.83;;;;;;;;;;5028210;28;20064;-81
2022/01/13 06:27:58;;;;;;;109.85;49.55;;;;;;;;;;5044617;28;20083;-80
2022/01/13 06:30:24;;;;;;;118.00;50.10;;;;;;;;;;5046839;28;20084;-84
2022/01/13 06:32:50;;;;;;;113.40;49.38;;;;;;;;;;5060376;28;20114;-83
2022/01/13 06:35:16;;;;;;;114.57;48.88;;;;;;;;;;5044675;28;20138;-81
2022/01/13 06:37:42;;;;;;;111.70;48.97;;;;;;;;;;5044891;28;20357;-83
2022/01/13 06:40:08;;;;;;;110.80;49.45;;;;;;;;;;5033408;28;20060;-81
2022/01/13 06:42:34;;;;;;;116.78;49.17;;;;;;;;;;5053524;28;20106;-81
2022/01/13 06:45:00;;;;;;;126.88;49.58;;;;;;;;;;5030230;28;20017;-83
2022/01/13 06:47:26;;;;;;;121.25;50.45;;;;;;;;;;5039707;28;20052;-83
2022/01/13 06:49:52;;;;;;;111.72;49.35;;;;;;;;;;5028434;28;20046;-83
2022/01/13 06:52:18;;;;;;;123.90;51.47;;;;;;;;;;5044398;28;20370;-83
2022/01/13 06:54:44;;;;;;;124.65;51.40;;;;;;;;;;5027460;28;20041;-83
2022/01/13 06:57:10;;;;;;;121.47;50.90;;;;;;;;;;5029983;28;20130;-80
2022/01/13 06:59:36;;;;;;;113.15;49.78;;;;;;;;;;5032357;28;20046;-82
2022/01/13 07:02:02;;;;;;;116.38;49.38;;;;;;;;;;5044311;28;20056;-83
2022/01/13 07:04:29;;;;;;;126.75;49.28;;;;;;;;;;5046086;28;20112;-82
2022/01/13 07:06:55;;;;;;;132.98;51.55;;;;;;;;;;5052492;28;20048;-83
2022/01/13 07:09:21;;;;;;;112.55;50.22;;;;;;;;;;5056670;28;20111;-84
2022/01/13 07:11:47;;;;;;;118.57;49.67;;;;;;;;;;5057216;28;20045;-84
2022/01/13 07:14:13;;;;;;;114.80;48.08;;;;;;;;;;5033552;28;20065;-81
2022/01/13 07:16:40;;;;;;;116.63;50.22;;;;;;;;;;5024992;28;20033;-85
2022/01/13 07:19:06;;;;;;;120.53;51.22;;;;;;;;;;5040858;28;20045;-82
2022/01/13 07:21:33;;;;;;;108.75;47.33;;;;;;;;;;5025251;28;20412;-84
2022/01/13 07:23:59;;;;;;;109.78;47.58;;;;;;;;;;5026656;28;20042;-83
2022/01/13 07:26:25;;;;;;;109.85;46.85;;;;;;;;;;5027280;28;20453;-83
2022/01/13 07:28:51;;;;;;;113.93;49.45;;;;;;;;;;5043816;28;20041;-83
2022/01/13 07:31:17;;;;;;;111.57;46.97;;;;;;;;;;5047870;28;20053;-83
2022/01/13 07:33:43;;;;;;;132.25;50.13;;;;;;;;;;5050341;28;20041;-84
2022/01/13 07:36:09;;;;;;;123.03;50.20;;;;;;;;;;5030221;28;20446;-84
2022/01/13 07:38:35;;;;;;;127.15;50.17;;;;;;;;;;5030576;28;20057;-82
2022/01/13 07:41:01;;;;;;;124.53;49.97;;;;;;;;;;5030472;28;20037;-83
2022/01/13 07:43:27;;;;;;;118.30;49.13;;;;;;;;;;5027640;28;20091;-82
2022/01/13 07:45:53;;;;;;;128.50;50.20;;;;;;;;;;5026683;28;20037;-82
2022/01/13 07:48:19;;;;;;;120.38;48.28;;;;;;;;;;5026280;28;20430;-82
2022/01/13 07:50:45;;;;;;;127.82;49.08;;;;;;;;;;5043250;28;20069;-82
2022/01/13 07:53:11;;;;;;;120.55;49.42;;;;;;;;;;5026739;28;20064;-82
2022/01/13 07:55:37;;;;;;;111.95;46.30;;;;;;;;;;5044327;28;20164;-82
2022/01/13 07:58:03;;;;;;;125.32;50.03;;;;;;;;;;5043820;28;20082;-84
2022/01/13 08:00:29;;;;;;;122.05;51.45;;;;;;;;;;5043759;28;20147;-85
2022/01/13 08:02:55;;;;;;;141.63;52.35;;;;;;;;;;5043861;28;20080;-85
2022/01/13 08:05:21;;;;;;;130.88;52.15;;;;;;;;;;5026582;28;20116;-84
2022/01/13 08:07:47;;;;;;;130.30;49.50;;;;;;;;;;5026158;28;20431;-84
2022/01/13 08:10:13;;;;;;;135.27;51.33;;;;;;;;;;5045419;28;20120;-81
2022/01/13 08:12:40;;;;;;;131.32;51.65;;;;;;;;;;5044990;28;20065;-84
2022/01/13 08:15:13;;;;;;;129.88;50.83;;;;;;;;;;5027986;28;20099;-84
2022/01/13 08:20:27;;;;;;;134.80;50.78;;;;;;;;;;5050862;28;20065;-85
2022/01/13 08:22:53;;;;;;;126.97;50.25;;;;;;;;;;5030882;28;20041;-85
2022/01/13 08:25:19;;;;;;;127.22;49.38;;;;;;;;;;5031608;28;20048;-85
2022/01/13 08:27:45;;;;;;;115.18;45.95;;;;;;;;;;5033668;28;20424;-82
2022/01/13 08:30:12;;;;;;;124.68;48.50;;;;;;;;;;5032438;28;20045;-84
2022/01/13 08:32:38;;;;;;;117.60;47.42;;;;;;;;;;5047308;28;20059;-84
2022/01/13 08:35:04;;;;;;;117.07;47.35;;;;;;;;;;5046399;28;20041;-85
2022/01/13 08:37:32;;;;;;;110.30;46.88;;;;;;;;;;5045466;28;20048;-85
2022/01/13 08:39:59;;;;;;;122.03;47.72;;;;;;;;;;5045606;28;20045;-85
2022/01/13 08:42:25;;;;;;;116.97;48.85;;;;;;;;;;5045661;28;20116;-85
2022/01/13 08:44:51;;;;;;;116.03;47.90;;;;;;;;;;5045245;28;20113;-85
2022/01/13 08:47:17;;;;;;;123.75;49.38;;;;;;;;;;5047536;28;20044;-84
2022/01/13 08:49:43;;;;;;;133.57;49.92;;;;;;;;;;5053697;28;20079;-83
2022/01/13 08:52:09;;;;;;;127.70;50.58;;;;;;;;;;5052325;28;20033;-83
2022/01/13 08:54:35;;;;;;;126.50;48.92;;;;;;;;;;5053555;28;20091;-83
2022/01/13 08:57:01;;;;;;;113.07;48.50;;;;;;;;;;5034005;28;20047;-85
2022/01/13 08:59:28;;;;;;;115.30;47.90;;;;;;;;;;5050515;28;20047;-84
2022/01/13 09:01:54;;;;;;;114.97;48.70;;;;;;;;;;5034599;28;20040;-83
2022/01/13 09:04:20;;;;;;;109.88;47.83;;;;;;;;;;5049716;28;20068;-84
2022/01/13 09:06:46;;;;;;;117.88;48.08;;;;;;;;;;5034450;28;20033;-84
2022/01/13 09:09:14;;;;;;;112.05;46.08;;;;;;;;;;5050833;28;20037;-85
2022/01/13 09:11:40;;;;;;;113.18;47.40;;;;;;;;;;5052538;28;20037;-84
2022/01/13 09:14:06;;;;;;;107.65;47.13;;;;;;;;;;5052209;28;20150;-84
2022/01/13 09:16:41;;;;;;;108.55;45.63;;;;;;;;;;5035224;28;20120;-83
2022/01/13 09:19:08;;;;;;;123.80;48.60;;;;;;;;;;5034620;28;20045;-82
2022/01/13 09:21:37;;;;;;;112.32;46.10;;;;;;;;;;5052816;28;20120;-83
2022/01/13 09:24:03;;;;;;;109.78;45.88;;;;;;;;;;5055347;28;20104;-83
2022/01/13 09:26:30;;;;;;;113.70;46.05;;;;;;;;;;5036494;28;20387;-83
2022/01/13 09:28:56;;;;;;;103.32;44.65;;;;;;;;;;5052430;28;20053;-84
2022/01/13 09:31:22;;;;;;;105.50;45.17;;;;;;;;;;5036418;28;20037;-83
2022/01/13 09:33:48;;;;;;;101.63;44.58;;;;;;;;;;5033868;28;20041;-85
2022/01/13 09:36:14;;;;;;;98.50;42.38;;;;;;;;;;5033361;28;20048;-83
2022/01/13 09:38:40;;;;;;;93.78;43.75;;;;;;;;;;5067513;28;20033;-83
2022/01/13 09:41:06;;;;;;;92.57;42.22;;;;;;;;;;5032532;28;20437;-83
2022/01/13 09:43:32;;;;;;;95.35;40.83;;;;;;;;;;5067393;28;20041;-83
2022/01/13 09:45:59;;;;;;;97.47;41.58;;;;;;;;;;5048961;28;20036;-83
2022/01/13 09:48:26;;;;;;;94.55;41.63;;;;;;;;;;5033979;28;20025;-84
2022/01/13 09:50:52;;;;;;;93.20;41.45;;;;;;;;;;5030527;28;20059;-83
2022/01/13 09:53:18;;;;;;;91.35;40.13;;;;;;;;;;5032212;28;20064;-85
2022/01/13 09:55:45;;;;;;;91.85;41.70;;;;;;;;;;5046834;28;20116;-84
2022/01/13 09:58:11;;;;;;;92.93;40.90;;;;;;;;;;5029498;28;20082;-84
2022/01/13 10:00:38;;;;;;;94.70;40.92;;;;;;;;;;5046520;28;20497;-82
2022/01/13 10:03:17;;;;;;;80.82;40.35;;;;;;;;;;5033023;28;20049;-83
2022/01/13 10:05:47;;;;;;;87.30;38.75;;;;;;;;;;5033655;28;20063;-83
2022/01/13 10:08:13;;;;;;;95.15;40.33;;;;;;;;;;5036548;28;20052;-83
2022/01/13 10:10:39;;;;;;;84.75;38.15;;;;;;;;;;5033658;28;20044;-84
2022/01/13 10:13:08;;;;;;;89.35;39.40;;;;;;;;;;5033260;28;20048;-84
2022/01/13 10:18:41;;;;;;;83.97;38.80;;;;;;;;;;5049390;28;20029;-82
2022/01/13 10:21:17;;;;;;;79.68;38.05;;;;;;;;;;5034354;28;20090;-83
2022/01/13 10:24:06;;;;;;;80.43;37.28;;;;;;;;;;5031674;28;20052;-84
2022/01/13 10:26:34;;;;;;;84.53;39.05;;;;;;;;;;5040623;28;20041;-83
2022/01/13 10:29:00;;;;;;;84.05;38.17;;;;;;;;;;5034505;28;20041;-83
2022/01/13 10:31:45;;;;;;;74.25;38.13;;;;;;;;;;5032185;28;20071;-83
2022/01/13 10:34:22;;;;;;;85.03;37.72;;;;;;;;;;5051287;28;20376;-84
2022/01/13 10:37:11;;;;;;;85.88;39.10;;;;;;;;;;5051211;28;20068;-83
2022/01/13 10:39:44;;;;;;;80.93;37.55;;;;;;;;;;5047854;28;20041;-84
2022/01/13 10:45:00;;;;;;;81.18;36.20;;;;;;;;;;5045416;28;19912;-85
2022/01/13 10:47:30;;;;;;;78.63;37.85;;;;;;;;;;5030703;28;20127;-84
2022/01/13 10:50:00;;;;;;;84.55;37.90;;;;;;;;;;5031143;28;20072;-84
2022/01/13 10:52:27;;;;;;;84.95;38.90;;;;;;;;;;5030675;28;20045;-83
2022/01/13 10:55:03;;;;;;;82.50;37.50;;;;;;;;;;5047542;28;20131;-83
2022/01/13 10:57:29;;;;;;;82.32;38.72;;;;;;;;;;5066848;28;20044;-82
2022/01/13 10:59:55;;;;;;;78.97;37.50;;;;;;;;;;5031763;28;20029;-84
2022/01/13 11:02:21;;;;;;;84.97;37.90;;;;;;;;;;5031196;28;20430;-84
2022/01/13 11:04:47;;;;;;;75.85;38.72;;;;;;;;;;5035668;28;20036;-84
2022/01/13 11:07:24;;;;;;;84.20;39.88;;;;;;;;;;5036866;28;20033;-82
2022/01/13 11:09:54;;;;;;;81.13;37.85;;;;;;;;;;5054511;28;20033;-84
2022/01/13 11:12:31;;;;;;;82.93;36.92;;;;;;;;;;5035482;28;20071;-82
2022/01/13 11:15:03;;;;;;;82.75;39.92;;;;;;;;;;5053111;28;20049;-83
2022/01/13 11:17:29;;;;;;;80.57;37.47;;;;;;;;;;5055228;28;20051;-83
2022/01/13 11:19:59;;;;;;;80.28;38.20;;;;;;;;;;5062059;28;20032;-84
2022/01/13 11:22:34;;;;;;;77.30;37.28;;;;;;;;;;5045469;28;20048;-85
2022/01/13 11:25:00;;;;;;;73.60;37.20;;;;;;;;;;5059983;28;20048;-85
2022/01/13 11:27:26;;;;;;;78.95;38.53;;;;;;;;;;5064274;28;20029;-83
2022/01/13 11:29:52;;;;;;;75.90;36.20;;;;;;;;;;5048086;28;20060;-84
2022/01/13 11:32:18;;;;;;;81.30;37.67;;;;;;;;;;5064356;28;20060;-84
2022/01/13 11:34:44;;;;;;;76.20;36.20;;;;;;;;;;5047998;28;20096;-80
2022/01/13 11:37:10;;;;;;;80.18;36.28;;;;;;;;;;5048545;28;20031;-81
2022/01/13 11:39:40;;;;;;;80.93;36.75;;;;;;;;;;5064681;28;20085;-82
2022/01/13 11:42:07;;;;;;;78.75;35.38;;;;;;;;;;5064943;28;20025;-82
2022/01/13 11:44:33;;;;;;;78.82;36.53;;;;;;;;;;5064510;28;20065;-83
2022/01/13 11:46:59;;;;;;;76.25;36.60;;;;;;;;;;5063252;28;20025;-81
2022/01/13 11:49:39;;;;;;;75.30;37.88;;;;;;;;;;5046011;28;20041;-81
2022/01/13 11:52:14;;;;;;;76.03;35.33;;;;;;;;;;5048796;28;20041;-81
2022/01/13 11:54:41;;;;;;;71.57;34.50;;;;;;;;;;5049220;28;20025;-82
2022/01/13 11:57:07;;;;;;;70.07;34.63;;;;;;;;;;5042063;28;20093;-83
2022/01/13 11:59:33;;;;;;;69.38;34.13;;;;;;;;;;5081307;28;20021;-83
2022/01/13 12:02:18;;;;;;;66.28;32.55;;;;;;;;;;5048225;28;20025;-82
2022/01/13 12:05:03;;;;;;;59.20;29.75;;;;;;;;;;5064589;28;20048;-83
2022/01/13 12:07:43;;;;;;;58.17;28.55;;;;;;;;;;5064495;28;20084;-83
2022/01/13 12:10:09;;;;;;;60.28;28.88;;;;;;;;;;5047747;28;20136;-83
2022/01/13 12:12:35;;;;;;;58.95;29.20;;;;;;;;;;5047711;28;20063;-83
2022/01/13 12:15:20;;;;;;;59.67;29.60;;;;;;;;;;5064194;28;20029;-82
2022/01/13 12:17:47;;;;;;;65.93;30.20;;;;;;;;;;5048134;28;20063;-82
2022/01/13 12:20:23;;;;;;;60.80;28.85;;;;;;;;;;5047850;28;20032;-82
2022/01/13 12:23:02;;;;;;;61.00;28.23;;;;;;;;;;5064304;28;20025;-82
2022/01/13 12:25:31;;;;;;;55.95;28.10;;;;;;;;;;5049611;28;20033;-83
2022/01/13 12:27:58;;;;;;;59.08;28.52;;;;;;;;;;5064085;28;20068;-83
2022/01/13 12:30:28;;;;;;;57.67;27.40;;;;;;;;;;5047532;28;20025;-83
2022/01/13 12:32:58;;;;;;;54.97;26.42;;;;;;;;;;5047014;28;20037;-81
2022/01/13 12:35:39;;;;;;;53.28;26.05;;;;;;;;;;5047163;28;20045;-82
2022/01/13 12:38:16;;;;;;;54.70;26.48;;;;;;;;;;5080412;28;20048;-83
2022/01/13 12:40:55;;;;;;;50.10;25.50;;;;;;;;;;5046752;28;20041;-83
2022/01/13 12:43:49;;;;;;;51.28;25.27;;;;;;;;;;5062459;28;20105;-81
2022/01/13 12:46:24;;;;;;;47.60;24.77;;;;;;;;;;5063894;28;20033;-81
2022/01/13 12:48:51;;;;;;;57.15;24.60;;;;;;;;;;5063252;28;20025;-81
2022/01/13 12:51:17;;;;;;;56.70;26.50;;;;;;;;;;5059695;28;20108;-81
2022/01/13 12:53:44;;;;;;;50.33;24.63;;;;;;;;;;5060072;28;20068;-83
2022/01/13 12:56:14;;;;;;;48.10;23.15;;;;;;;;;;5042934;28;20053;-82
2022/01/13 12:58:41;;;;;;;48.75;24.33;;;;;;;;;;5049459;28;20048;-84
2022/01/13 13:01:07;;;;;;;51.45;24.33;;;;;;;;;;5031126;28;20041;-83
2022/01/13 13:03:34;;;;;;;47.30;23.67;;;;;;;;;;5046975;28;20048;-84
2022/01/13 13:06:00;;;;;;;57.67;27.88;;;;;;;;;;5046140;28;20042;-84
2022/01/13 13:08:27;;;;;;;59.28;27.70;;;;;;;;;;5033598;28;20017;-83
2022/01/13 13:10:59;;;;;;;51.75;24.10;;;;;;;;;;5041363;28;20053;-84
2022/01/13 13:13:27;;;;;;;46.55;22.58;;;;;;;;;;5040626;28;20027;-84
2022/01/13 13:15:57;;;;;;;48.67;23.40;;;;;;;;;;5033715;28;20039;-82
2022/01/13 13:18:25;;;;;;;46.97;22.67;;;;;;;;;;5049980;28;20037;-82
2022/01/13 13:20:51;;;;;;;55.75;22.67;;;;;;;;;;5031039;28;20045;-83
2022/01/13 13:23:18;;;;;;;47.83;23.38;;;;;;;;;;5032903;28;20081;-83
2022/01/13 13:25:48;;;;;;;48.75;23.30;;;;;;;;;;5049686;28;20033;-81
2022/01/13 13:28:21;;;;;;;51.80;23.05;;;;;;;;;;5031728;28;20037;-81
2022/01/13 13:30:48;;;;;;;47.35;23.58;;;;;;;;;;5034869;28;20037;-82
2022/01/13 13:33:14;;;;;;;44.55;23.17;;;;;;;;;;5049654;28;20048;-83
2022/01/13 13:35:40;;;;;;;50.08;24.23;;;;;;;;;;5048952;28;20048;-83
2022/01/13 13:38:12;;;;;;;54.53;24.75;;;;;;;;;;5026265;28;20033;-86
2022/01/13 13:40:42;;;;;;;50.88;24.55;;;;;;;;;;5029959;28;20064;-84
2022/01/13 13:43:08;;;;;;;54.22;25.15;;;;;;;;;;5042010;28;20037;-83
2022/01/13 13:45:34;;;;;;;58.53;26.85;;;;;;;;;;5040982;28;20099;-83
2022/01/13 13:48:00;;;;;;;52.17;25.52;;;;;;;;;;5025735;28;20110;-83
2022/01/13 13:50:27;;;;;;;48.60;24.73;;;;;;;;;;5026313;28;20073;-81
2022/01/13 13:53:12;;;;;;;53.75;25.02;;;;;;;;;;5026517;28;20094;-82
2022/01/13 13:55:38;;;;;;;50.67;23.35;;;;;;;;;;5026844;28;20052;-81
2022/01/13 13:58:04;;;;;;;48.92;23.23;;;;;;;;;;5044514;28;20097;-83
2022/01/13 14:00:30;;;;;;;49.13;23.58;;;;;;;;;;5042508;28;20041;-84
2022/01/13 14:02:58;;;;;;;54.45;24.10;;;;;;;;;;5027375;28;20045;-83
2022/01/13 14:05:33;;;;;;;47.90;25.48;;;;;;;;;;5028939;28;20045;-83
2022/01/13 14:08:06;;;;;;;58.53;27.35;;;;;;;;;;5027086;28;20096;-85
2022/01/13 14:10:32;;;;;;;61.95;28.05;;;;;;;;;;5027003;28;20485;-84
2022/01/13 14:13:04;;;;;;;65.10;30.80;;;;;;;;;;5042800;28;20041;-81
2022/01/13 14:15:30;;;;;;;68.35;32.45;;;;;;;;;;5041316;28;20047;-83
2022/01/13 14:18:17;;;;;;;69.97;32.75;;;;;;;;;;5040375;28;20041;-81
2022/01/13 14:20:49;;;;;;;73.93;34.90;;;;;;;;;;5041373;28;20369;-83
2022/01/13 14:23:29;;;;;;;77.45;36.10;;;;;;;;;;5043331;28;20369;-82
2022/01/13 14:26:05;;;;;;;70.85;34.88;;;;;;;;;;5023640;28;20057;-81
2022/01/13 14:28:31;;;;;;;77.65;36.55;;;;;;;;;;5024845;28;20041;-84
2022/01/13 14:31:01;;;;;;;75.05;36.08;;;;;;;;;;5025258;28;20047;-82
2022/01/13 14:33:32;;;;;;;75.47;35.20;;;;;;;;;;5042910;28;20390;-83
2022/01/13 14:35:59;;;;;;;73.75;35.03;;;;;;;;;;5027615;28;20377;-80
2022/01/13 14:38:33;;;;;;;77.72;34.10;;;;;;;;;;5045181;28;20426;-84